Cape May, New Jersey
Current Conditions -  °F | °C
As of 3:35 AM on Saturday 01 Nov 2014 (Local Time) from KWWD Reporting Station
Overcast Overcast  
Wind Chill: 52°   Ceiling: 8000
Heat Index: 52°   Visibility: 8mi
Dew Point: 46°   Wind: 12mph
Humidity: 82%   Direction: 10°N
Pressure: 29.69"   Gusts: 20mph
Location:  38.94°N, 74.91°W
Report Text: KWWD 010735Z AUTO 01010G17KT 8SM SCT008 BKN080 OVC085 11/08 A2969 RMK AO1 P0001
Loading
Personal Weather Stations






























Interactive Weather Map New forecast layout! Learn more

10-Day Weather Forecast

Advertisements
Track Severe Weather on mobile